Ali Cat — MZCL8 — position and weather

sailwx.info

Track history (hours):
 
Tides and Currents Weather Stations Pressure Air Temp Water Temp Dewpoint Dewpoint Depression Visibility Wind Speed Wind Dir Waves Ship Positions

Ali Cat

Operator: MRCC Clyde

Last reported at 2017-Sep-01 13:39 UTC. Time now 2017-Oct-18 09:17 UTC.
Position N 55°57' W 004°54'.
Warning: this ship's position is 46 days out of date.

Length 19 m.

Type: Passenger vessel. MMSI: 235056506.

Date/timePositionNaut miles runAvg speedWind from/ knotsBaromVisibWave heightAir tempDewpointWater temp
2017-Sep-01 13:39N 55°57' W 004°54'210.2
2017-Sep-01 13:30N 55°58' W 004°51'1 2.3
2017-Sep-01 12:55N 55°57' W 004°54'1 3.0
2017-Sep-01 12:30N 55°58' W 004°52'2 0.4
2017-Sep-01 08:24N 55°57' W 004°54'2 4.9
2017-Sep-01 07:59N 55°58' W 004°51'2 3.4
2017-Sep-01 07:25N 55°57' W 004°54'3 0.3
2017-Aug-31 20:10N 55°58' W 004°49'3 0.7
2017-Aug-31 15:22N 55°57' W 004°55'1 0.0
2017-Aug-30 20:47N 55°57' W 004°53'1 2.4
2017-Aug-30 20:30N 55°57' W 004°55'2 2.6
2017-Aug-30 19:37N 55°58' W 004°50'210.1
2017-Aug-30 19:25N 55°57' W 004°54'2 4.2
2017-Aug-30 18:59N 55°58' W 004°51'2 3.1
2017-Aug-30 18:25N 55°57' W 004°54'1 3.5
2017-Aug-30 18:00N 55°58' W 004°51'2 2.8
2017-Aug-30 17:24N 55°57' W 004°54'2 4.1
2017-Aug-30 17:00N 55°58' W 004°51'1 2.0
2017-Aug-30 16:29N 55°57' W 004°53'  
Track history (hours):
 
Tides and Currents Weather Stations Pressure Air Temp Water Temp Dewpoint Dewpoint Depression Visibility Wind Speed Wind Dir Waves Ship Positions

Ali Cat

Operator: MRCC Clyde

Last reported at 2017-Sep-01 13:39 UTC. Time now 2017-Oct-18 09:17 UTC.
Position N 55°57' W 004°54'.
Warning: this ship's position is 46 days out of date.

Length 19 m.

Type: Passenger vessel. MMSI: 235056506.

Date/timePositionNaut miles runAvg speedWind from/ knotsBaromVisibWave heightAir tempDewpointWater temp
2017-Sep-01 13:39N 55°57' W 004°54'210.2
2017-Sep-01 13:30N 55°58' W 004°51'1 2.3
2017-Sep-01 12:55N 55°57' W 004°54'1 3.0
2017-Sep-01 12:30N 55°58' W 004°52'2 0.4
2017-Sep-01 08:24N 55°57' W 004°54'2 4.9
2017-Sep-01 07:59N 55°58' W 004°51'2 3.4
2017-Sep-01 07:25N 55°57' W 004°54'3 0.3
2017-Aug-31 20:10N 55°58' W 004°49'3 0.7
2017-Aug-31 15:22N 55°57' W 004°55'1 0.0
2017-Aug-30 20:47N 55°57' W 004°53'1 2.4
2017-Aug-30 20:30N 55°57' W 004°55'2 2.6
2017-Aug-30 19:37N 55°58' W 004°50'210.1
2017-Aug-30 19:25N 55°57' W 004°54'2 4.2
2017-Aug-30 18:59N 55°58' W 004°51'2 3.1
2017-Aug-30 18:25N 55°57' W 004°54'1 3.5
2017-Aug-30 18:00N 55°58' W 004°51'2 2.8
2017-Aug-30 17:24N 55°57' W 004°54'2 4.1
2017-Aug-30 17:00N 55°58' W 004°51'1 2.0
2017-Aug-30 16:29N 55°57' W 004°53'  

Dump ship's entire track history